Time;durP1;ratioP1;P1;durP2;ratioP2;P2;SDS_P1;SDS_P2;PMS_P1;PMS_P2;Temp;Humidity;BMP_temperature;BMP_pressure;BME280_temperature;BME280_humidity;BME280_pressure;Samples;Min_cycle;Max_cycle;Signal;HPM_P1;HPM_P2
2022/02/14 00:00:31;;;;;;;1999.90;999.90;;;;;;;7.15;58.28;100513.31;15644494;28;20427;-59
2022/02/14 00:08:03;;;;;;;1999.90;999.90;;;;;;;7.16;58.04;100517.72;15617715;28;20056;-60
2022/02/14 00:15:37;;;;;;;1999.90;999.90;;;;;;;7.23;57.75;100512.56;15610274;28;20050;-60
2022/02/14 00:23:09;;;;;;;1999.90;999.90;;;;;;;7.33;57.55;100503.16;15648646;28;20045;-59
2022/02/14 00:30:42;;;;;;;1999.90;999.90;;;;;;;7.19;57.85;100494.91;15613740;28;20049;-59
2022/02/14 00:38:14;;;;;;;1999.90;999.90;;;;;;;7.23;57.77;100492.31;15629720;28;20127;-59
2022/02/14 00:45:49;;;;;;;1999.90;999.90;;;;;;;7.49;56.93;100500.81;15616977;28;20045;-57
2022/02/14 00:53:21;;;;;;;1999.90;999.90;;;;;;;7.28;57.29;100483.84;15655741;28;20050;-59
2022/02/14 01:00:55;;;;;;;1999.90;999.90;;;;;;;7.15;57.03;100477.25;15576736;28;20434;-60
2022/02/14 01:08:27;;;;;;;;;;;;;;;7.32;56.76;100464.63;15597578;28;20124;-59
2022/02/14 01:16:00;;;;;;;1999.90;999.90;;;;;;;7.05;56.83;100449.75;15659209;28;19978;-61
2022/02/14 01:23:32;;;;;;;1999.90;999.90;;;;;;;6.81;57.35;100449.25;15639159;28;20281;-61
2022/02/14 01:31:06;;;;;;;1999.90;999.90;;;;;;;7.03;57.22;100445.66;15639696;28;20205;-60
2022/02/14 01:38:38;;;;;;;1999.90;999.90;;;;;;;6.94;56.72;100440.03;15607509;28;20414;-60
2022/02/14 01:46:13;;;;;;;1999.90;999.90;;;;;;;6.64;57.51;100436.88;15601335;28;20487;-58
2022/02/14 01:53:46;;;;;;;1999.90;999.90;;;;;;;6.91;56.00;100416.53;15659859;28;20077;-59
2022/02/14 02:01:19;;;;;;;1999.90;999.90;;;;;;;6.77;56.38;100407.44;15623779;28;20041;-60
2022/02/14 02:08:51;;;;;;;1999.90;999.90;;;;;;;6.74;56.01;100404.50;15621565;28;20046;-60
2022/02/14 02:16:25;;;;;;;1999.90;999.90;;;;;;;6.63;56.66;100393.66;15595504;28;20057;-60
2022/02/14 02:23:58;;;;;;;1999.90;999.90;;;;;;;6.51;56.32;100376.75;15640864;28;20049;-63
2022/02/14 02:31:32;;;;;;;1999.90;999.90;;;;;;;6.32;57.07;100373.34;15600908;28;20095;-64
2022/02/14 02:39:04;;;;;;;;;;;;;;;6.14;57.33;100361.28;15603508;28;20144;-64
2022/02/14 02:46:38;;;;;;;1999.90;999.90;;;;;;;6.17;57.13;100359.84;15632852;28;20032;-63
2022/02/14 02:54:14;;;;;;;1999.90;999.90;;;;;;;5.79;57.45;100346.25;15616830;28;20102;-64
2022/02/14 03:01:48;;;;;;;1999.90;999.90;;;;;;;5.87;57.28;100326.13;15649680;28;20101;-64
2022/02/14 03:09:20;;;;;;;1999.90;999.90;;;;;;;5.57;57.47;100318.50;15654581;28;20038;-64
2022/02/14 03:16:54;;;;;;;1999.90;999.90;;;;;;;5.57;56.80;100313.78;15617940;28;20137;-61
2022/02/14 03:24:26;;;;;;;1999.90;999.90;;;;;;;5.74;56.44;100285.47;15624975;28;20128;-64
2022/02/14 03:31:59;;;;;;;1999.90;999.90;;;;;;;5.64;56.56;100289.28;15631410;28;20042;-63
2022/02/14 03:39:31;;;;;;;1999.90;999.90;;;;;;;5.67;56.16;100274.00;15636095;28;20328;-62
2022/02/14 03:47:05;;;;;;;1999.90;999.90;;;;;;;5.56;56.09;100262.31;15651290;28;20060;-61
2022/02/14 03:54:37;;;;;;;;;;;;;;;6.01;55.52;100257.69;15633945;28;20478;-63
2022/02/14 04:02:10;;;;;;;1999.90;999.90;;;;;;;5.51;56.15;100240.28;15626728;28;19921;-62
2022/02/14 04:09:42;;;;;;;1999.90;999.90;;;;;;;5.58;55.61;100224.09;15631152;28;20122;-63
2022/02/14 04:17:15;;;;;;;1999.90;999.90;;;;;;;5.54;55.62;100220.31;15613060;28;20044;-62
2022/02/14 04:24:48;;;;;;;1999.90;999.90;;;;;;;5.40;55.99;100217.56;15655454;28;20494;-63
2022/02/14 04:32:22;;;;;;;1999.90;999.90;;;;;;;5.68;55.24;100200.88;15635355;28;20061;-63
2022/02/14 04:39:54;;;;;;;1999.90;999.90;;;;;;;5.77;54.64;100210.91;15644761;28;20403;-63
2022/02/14 04:47:27;;;;;;;1999.90;999.90;;;;;;;5.83;55.02;100208.00;15612809;28;20089;-63
2022/02/14 04:54:59;;;;;;;1999.90;999.90;;;;;;;5.69;54.81;100203.34;15639854;28;20574;-62
2022/02/14 05:02:32;;;;;;;1999.90;999.90;;;;;;;5.83;54.59;100205.22;15636984;28;20455;-62
2022/02/14 05:10:06;;;;;;;1999.90;999.90;;;;;;;5.61;55.16;100197.72;15610711;28;20501;-64
2022/02/14 05:17:39;;;;;;;1999.90;999.90;;;;;;;5.70;54.35;100188.34;15633491;28;20049;-64
2022/02/14 05:25:11;;;;;;;1999.90;999.90;;;;;;;5.61;54.52;100187.47;15660036;28;20493;-64
2022/02/14 05:32:45;;;;;;;1999.90;999.90;;;;;;;5.72;54.01;100194.41;15604563;28;20477;-63
2022/02/14 05:40:17;;;;;;;1999.90;999.90;;;;;;;5.67;54.03;100194.53;15629846;28;20041;-63
2022/02/14 05:47:50;;;;;;;1999.90;999.90;;;;;;;5.62;54.11;100202.13;15608311;28;20070;-63
2022/02/14 05:55:22;;;;;;;1999.90;999.90;;;;;;;5.80;53.83;100181.75;15632461;28;20045;-62
2022/02/14 06:02:56;;;;;;;1999.90;999.90;;;;;;;5.50;54.43;100184.13;15630640;28;20072;-65
2022/02/14 06:10:28;;;;;;;1999.90;999.90;;;;;;;5.62;54.11;100174.44;15669966;28;20041;-62
2022/02/14 06:18:01;;;;;;;1999.90;999.90;;;;;;;5.67;53.42;100182.63;15630867;28;20045;-63
2022/02/14 06:25:33;;;;;;;;;;;;;;;5.63;53.84;100179.69;15641919;28;20124;-59
2022/02/14 06:33:07;;;;;;;1999.90;999.90;;;;;;;5.52;53.96;100186.56;15629088;28;20288;-60
2022/02/14 06:40:39;;;;;;;1999.90;999.90;;;;;;;5.82;53.77;100179.50;15630865;28;20132;-60
2022/02/14 06:48:13;;;;;;;1999.90;999.90;;;;;;;6.05;53.09;100181.19;15613379;28;20047;-60
2022/02/14 06:55:45;;;;;;;1999.90;999.90;;;;;;;6.17;52.13;100188.09;15614972;28;20129;-60
2022/02/14 07:03:19;;;;;;;1999.90;999.90;;;;;;;6.00;52.54;100175.75;15612502;28;20045;-58
2022/02/14 07:10:51;;;;;;;1999.90;999.90;;;;;;;6.21;52.20;100170.50;15594554;28;20041;-60
2022/02/14 07:18:25;;;;;;;1999.90;999.90;;;;;;;6.47;52.14;100164.31;15595582;28;20045;-59
2022/02/14 07:25:58;;;;;;;1999.90;999.90;;;;;;;6.86;51.03;100178.13;15578384;28;20148;-61
2022/02/14 07:33:33;;;;;;;1999.90;999.90;;;;;;;7.51;49.01;100163.44;15593826;28;20041;-60
2022/02/14 07:41:07;;;;;;;1999.90;999.90;;;;;;;8.01;48.13;100173.19;15594251;28;20140;-59
2022/02/14 07:48:46;;;;;;;1999.90;999.90;;;;;;;8.57;46.83;100155.44;15592806;28;20087;-59
2022/02/14 07:56:18;;;;;;;1999.90;999.90;;;;;;;8.75;46.30;100169.25;15593245;28;20160;-58
2022/02/14 08:03:52;;;;;;;1999.90;999.90;;;;;;;8.43;46.88;100170.66;15583613;28;20045;-58
2022/02/14 08:11:24;;;;;;;1999.90;999.90;;;;;;;8.51;46.45;100164.28;15624544;28;20041;-58
2022/02/14 08:18:59;;;;;;;1999.90;999.90;;;;;;;8.81;45.87;100154.81;15591410;28;20484;-52
2022/02/14 08:26:31;;;;;;;1999.90;999.90;;;;;;;9.12;45.06;100136.97;15634107;28;20044;-52
2022/02/14 08:34:05;;;;;;;1999.90;999.90;;;;;;;9.82;43.54;100146.44;15621730;28;20419;-55
2022/02/14 08:41:37;;;;;;;;;;;;;;;9.87;43.53;100139.81;15625776;28;20076;-54
2022/02/14 08:49:11;;;;;;;1999.90;999.90;;;;;;;9.77;43.13;100139.09;15630113;28;19978;-52
2022/02/14 08:56:44;;;;;;;1999.90;999.90;;;;;;;10.87;41.66;100139.38;15662466;28;20413;-53
2022/02/14 09:04:18;;;;;;;1999.90;999.90;;;;;;;11.54;40.27;100137.88;15617575;28;20129;-56
2022/02/14 09:11:50;;;;;;;1999.90;999.90;;;;;;;12.34;39.67;100136.97;15631587;28;20439;-52
2022/02/14 09:19:25;;;;;;;1999.90;999.90;;;;;;;11.82;39.46;100131.53;15586558;28;20052;-55
2022/02/14 09:26:58;;;;;;;1999.90;999.90;;;;;;;13.29;37.52;100126.56;15585787;28;20447;-55
2022/02/14 09:34:32;;;;;;;1999.90;999.90;;;;;;;13.98;35.83;100131.63;15592271;28;20049;-55
2022/02/14 09:42:05;;;;;;;1999.90;999.90;;;;;;;13.00;37.92;100101.81;15602906;28;20056;-55
2022/02/14 09:49:42;;;;;;;1999.90;999.90;;;;;;;13.35;36.95;100104.69;15603531;28;20042;-54
2022/02/14 09:57:14;;;;;;;1999.90;999.90;;;;;;;14.55;34.58;100099.84;15620267;28;20068;-56
2022/02/14 10:05:06;;;;;;;1999.90;999.90;;;;;;;14.88;34.30;100102.00;15617798;28;20129;-57
2022/02/14 10:12:43;;;;;;;1999.90;999.90;;;;;;;15.21;34.15;100115.34;15600071;28;20041;-52
2022/02/14 10:20:21;;;;;;;1999.90;999.90;;;;;;;15.46;33.69;100115.72;15603653;28;20053;-61
2022/02/14 10:27:53;;;;;;;1999.90;999.90;;;;;;;16.93;31.79;100101.28;15628908;28;20044;-61
2022/02/14 10:35:27;;;;;;;1999.90;999.90;;;;;;;17.26;31.33;100098.28;15614834;28;20053;-63
2022/02/14 10:42:59;;;;;;;1999.90;999.90;;;;;;;16.58;32.66;100105.38;15636262;28;20635;-62
2022/02/14 10:50:33;;;;;;;1999.90;999.90;;;;;;;16.40;32.58;100093.94;15598617;28;20060;-62
2022/02/14 10:58:06;;;;;;;1999.90;999.90;;;;;;;16.73;32.32;100121.22;15657003;28;20459;-62
2022/02/14 11:05:40;;;;;;;1999.90;999.90;;;;;;;17.64;31.25;100106.56;15631769;28;20136;-63
2022/02/14 11:13:13;;;;;;;1999.90;999.90;;;;;;;19.00;30.33;100111.34;15652119;28;20049;-63
2022/02/14 11:20:50;;;;;;;1999.90;999.90;;;;;;;19.31;29.70;100106.84;15637502;28;20425;-61
2022/02/14 11:28:27;;;;;;;1999.90;999.90;;;;;;;19.13;30.37;100106.88;15616924;28;20045;-62
2022/02/14 11:36:05;;;;;;;1999.90;999.90;;;;;;;20.02;28.92;100092.47;15644823;28;20051;-62
2022/02/14 11:43:40;;;;;;;1999.90;999.90;;;;;;;19.29;30.02;100093.13;15670966;28;20131;-61
2022/02/14 11:51:17;;;;;;;1999.90;999.90;;;;;;;20.48;28.53;100082.09;15625757;28;20073;-62
2022/02/14 11:59:03;;;;;;;1999.90;999.90;;;;;;;21.00;28.19;100061.00;15644787;28;20528;-63
2022/02/14 12:07:15;;;;;;;1999.90;999.90;;;;;;;19.68;29.83;100051.78;15648523;28;20064;-63
2022/02/14 12:14:49;;;;;;;1999.90;999.90;;;;;;;20.05;29.58;100039.88;15638615;28;20053;-61
2022/02/14 12:22:22;;;;;;;1999.90;999.90;;;;;;;20.51;29.38;100022.56;15622091;28;20038;-63
2022/02/14 12:29:54;;;;;;;1999.90;999.90;;;;;;;20.33;29.37;100002.06;15639840;28;20135;-63
2022/02/14 12:37:28;;;;;;;1999.90;999.90;;;;;;;20.69;29.15;100020.38;15650639;28;20566;-63
2022/02/14 12:45:00;;;;;;;1999.90;999.90;;;;;;;21.30;28.25;100016.97;15667343;28;20045;-63
2022/02/14 12:52:34;;;;;;;1999.90;999.90;;;;;;;21.35;28.34;100010.00;15621450;28;20091;-62
2022/02/14 13:00:27;;;;;;;1999.90;999.90;;;;;;;22.62;27.44;100012.28;15593895;28;20426;-62
2022/02/14 13:08:04;;;;;;;1999.90;999.90;;;;;;;23.79;26.72;100003.53;15608655;28;20041;-63
2022/02/14 13:15:42;;;;;;;1999.90;999.90;;;;;;;19.60;31.99;99998.06;15604674;28;20375;-63
2022/02/14 13:23:17;;;;;;;1999.90;999.90;;;;;;;22.70;28.19;99990.97;15643441;28;20041;-63
2022/02/14 13:30:52;;;;;;;1999.90;999.90;;;;;;;19.07;32.71;99983.25;15612510;28;20360;-62
2022/02/14 13:38:35;;;;;;;1999.90;999.90;;;;;;;17.04;36.72;99995.06;15656153;28;20052;-62
2022/02/14 13:46:09;;;;;;;1999.90;999.90;;;;;;;16.68;38.07;99982.78;15601960;28;20475;-63
2022/02/14 13:53:43;;;;;;;1999.90;999.90;;;;;;;16.33;38.69;99969.19;15659621;28;20349;-62
2022/02/14 14:01:26;;;;;;;1999.90;999.90;;;;;;;16.54;38.45;99968.53;15636838;28;20175;-63
2022/02/14 14:08:59;;;;;;;1999.90;999.90;;;;;;;16.29;38.82;99960.72;15602881;28;20406;-62
2022/02/14 14:16:31;;;;;;;;;;;;;;;16.42;39.13;99955.59;15621716;28;20128;-62
2022/02/14 14:24:07;;;;;;;1999.90;999.90;;;;;;;16.44;39.28;99953.19;15606867;28;19983;-58
2022/02/14 14:31:39;;;;;;;1999.90;999.90;;;;;;;16.11;39.27;99963.38;15609716;28;20116;-60
2022/02/14 14:39:13;;;;;;;1999.90;999.90;;;;;;;16.42;38.98;99953.56;15596774;28;20041;-58
2022/02/14 14:46:45;;;;;;;;;;;;;;;16.39;39.26;99956.38;15606341;28;20053;-61
2022/02/14 14:54:19;;;;;;;1999.90;999.90;;;;;;;15.93;40.42;99959.59;15595311;28;19933;-57
2022/02/14 15:01:51;;;;;;;1999.90;999.90;;;;;;;16.23;40.49;99944.56;15614544;28;20041;-58
2022/02/14 15:09:26;;;;;;;1999.90;999.90;;;;;;;15.68;41.38;99947.28;15621028;28;20044;-58
2022/02/14 15:17:00;;;;;;;1999.90;999.90;;;;;;;15.69;41.46;99960.16;15606503;28;20124;-60
2022/02/14 15:24:33;;;;;;;;;;;;;;;15.55;41.02;99957.97;15620058;28;20369;-58
2022/02/14 15:32:05;;;;;;;;;;;;;;;15.67;41.08;99959.75;15623544;28;20310;-58
2022/02/14 15:39:39;;;;;;;1999.90;999.90;;;;;;;15.26;41.62;99959.66;15668215;28;19978;-59
2022/02/14 15:47:11;;;;;;;1999.90;999.90;;;;;;;15.27;41.88;99962.06;15626645;28;20091;-56
2022/02/14 15:54:47;;;;;;;1999.90;999.90;;;;;;;15.12;42.57;99962.28;15658303;28;20075;-60
2022/02/14 16:02:19;;;;;;;1999.90;999.90;;;;;;;14.93;43.08;99966.84;15619807;28;20098;-60
2022/02/14 16:09:53;;;;;;;1999.90;999.90;;;;;;;14.98;42.77;99971.31;15607128;28;20041;-60
2022/02/14 16:17:25;;;;;;;1999.90;999.90;;;;;;;14.79;43.18;99963.03;15618163;28;20049;-59
2022/02/14 16:24:58;;;;;;;1999.90;999.90;;;;;;;14.69;42.90;99970.94;15626000;28;20055;-58
2022/02/14 16:32:31;;;;;;;1999.90;999.90;;;;;;;14.67;42.22;99987.34;15583840;28;20046;-61
2022/02/14 16:40:06;;;;;;;1999.90;999.90;;;;;;;14.77;42.26;99988.69;15657254;28;20071;-59
2022/02/14 16:47:39;;;;;;;1999.90;999.90;;;;;;;14.75;41.98;99991.06;15633545;28;20049;-55
2022/02/14 16:55:15;;;;;;;1999.90;999.90;;;;;;;14.86;41.75;100006.06;15664944;28;20514;-60
2022/02/14 17:02:48;;;;;;;1999.90;999.90;;;;;;;14.82;41.91;100022.06;15655143;28;20079;-59
2022/02/14 17:10:22;;;;;;;1999.90;999.90;;;;;;;14.95;41.87;100031.88;15628523;28;20045;-59
2022/02/14 17:17:54;;;;;;;1999.90;999.90;;;;;;;14.61;42.51;100018.94;15636971;28;20062;-58
2022/02/14 17:25:29;;;;;;;1999.90;999.90;;;;;;;14.45;43.20;100030.28;15595096;28;20451;-57
2022/02/14 17:33:01;;;;;;;1999.90;999.90;;;;;;;14.03;44.68;100033.13;15614538;28;20402;-58
2022/02/14 17:40:37;;;;;;;1999.90;999.90;;;;;;;13.61;45.32;100031.13;15655098;28;20042;-59
2022/02/14 17:48:09;;;;;;;1999.90;999.90;;;;;;;13.15;45.98;100025.38;15608269;28;20230;-60
2022/02/14 17:55:42;;;;;;;1999.90;999.90;;;;;;;13.20;45.99;100030.69;15615613;28;20045;-59
2022/02/14 18:03:14;;;;;;;1999.90;999.90;;;;;;;12.91;46.08;100031.22;15583018;28;20049;-61
2022/02/14 18:10:48;;;;;;;1999.90;999.90;;;;;;;12.87;46.18;100030.31;15584483;28;20120;-58
2022/02/14 18:18:23;;;;;;;1999.90;999.90;;;;;;;12.88;45.93;100038.34;15617420;28;20208;-59
2022/02/14 18:25:56;;;;;;;1999.90;999.90;;;;;;;12.47;46.67;100034.16;15596194;28;20082;-62
2022/02/14 18:33:28;;;;;;;1999.90;999.90;;;;;;;11.75;47.92;100042.66;15616109;28;20149;-61
2022/02/14 18:41:02;;;;;;;1999.90;999.90;;;;;;;12.01;47.77;100044.19;15616685;28;20150;-58
2022/02/14 18:48:34;;;;;;;1999.90;999.90;;;;;;;11.79;48.16;100042.78;15609025;28;20055;-60
2022/02/14 18:56:11;;;;;;;1999.90;999.90;;;;;;;11.77;48.34;100042.28;15666489;28;20456;-58
2022/02/14 19:03:43;;;;;;;1999.90;999.90;;;;;;;11.61;48.60;100056.25;15624177;28;20040;-58
2022/02/14 19:11:18;;;;;;;1999.90;999.90;;;;;;;11.82;48.15;100075.63;15596269;28;20049;-59
2022/02/14 19:47:04;;;;;;;1999.90;999.90;;;;;;;12.08;47.96;100075.13;15610497;28;20542;-60
2022/02/14 19:54:37;;;;;;;1999.90;999.90;;;;;;;11.92;48.39;100077.91;15612055;28;20053;-60
2022/02/14 20:02:10;;;;;;;1999.90;999.90;;;;;;;11.75;49.42;100089.34;15611350;28;20056;-60
2022/02/14 20:09:42;;;;;;;;;;;;;;;11.82;48.87;100097.97;15594798;28;20078;-59
2022/02/14 20:17:17;;;;;;;1999.90;999.90;;;;;;;11.76;48.86;100104.94;15603696;28;20379;-58
2022/02/14 20:43:15;;;;;;;1999.90;999.90;;;;;;;11.54;49.32;100101.53;15609976;28;20128;-60
2022/02/14 20:50:47;;;;;;;1999.90;999.90;;;;;;;10.98;50.65;100112.63;15617950;28;20056;-61
2022/02/14 20:58:21;;;;;;;1999.90;999.90;;;;;;;10.74;51.14;100114.59;15647960;28;20487;-59
2022/02/14 21:05:53;;;;;;;1999.90;999.90;;;;;;;10.55;51.80;100120.75;15637328;28;20083;-59
2022/02/14 21:13:29;;;;;;;1999.90;999.90;;;;;;;10.32;52.26;100123.97;15598848;28;20060;-59
2022/02/14 21:21:02;;;;;;;1999.90;999.90;;;;;;;9.87;53.08;100117.53;15629664;28;20045;-60
2022/02/14 21:28:37;;;;;;;1999.90;999.90;;;;;;;10.23;52.63;100119.66;15607221;28;20513;-57
2022/02/14 21:36:35;;;;;;;1999.90;999.90;;;;;;;10.37;52.08;100120.94;15588292;28;20053;-60
2022/02/14 21:44:19;;;;;;;1999.90;999.90;;;;;;;10.32;52.15;100121.19;15611296;28;20217;-59
2022/02/14 21:51:57;;;;;;;1999.90;999.90;;;;;;;10.45;52.15;100124.00;15603708;28;20053;-61
2022/02/14 21:59:31;;;;;;;1999.90;999.90;;;;;;;10.53;52.04;100118.31;15634570;28;20048;-59
2022/02/14 22:14:54;;;;;;;1999.90;999.90;;;;;;;10.84;51.36;100122.50;15617377;28;20037;-61
2022/02/14 22:22:26;;;;;;;1999.90;999.90;;;;;;;10.76;50.87;100124.25;15636543;28;20047;-58
2022/02/14 22:29:59;;;;;;;1999.90;999.90;;;;;;;10.87;51.22;100127.38;15635332;28;20144;-58
2022/02/14 22:37:31;;;;;;;1999.90;999.90;;;;;;;10.70;51.10;100131.22;15634618;28;20529;-59
2022/02/14 22:45:08;;;;;;;1999.90;999.90;;;;;;;10.75;51.45;100139.38;15650085;28;20045;-59
2022/02/14 22:52:40;;;;;;;1999.90;999.90;;;;;;;10.80;50.96;100138.31;15638116;28;20037;-60
2022/02/14 23:00:33;;;;;;;1999.90;999.90;;;;;;;10.66;51.39;100147.03;15645074;28;20040;-58
2022/02/14 23:15:57;;;;;;;1999.90;999.90;;;;;;;10.31;52.56;100133.47;15615017;28;20044;-59
2022/02/14 23:23:29;;;;;;;1999.90;999.90;;;;;;;10.53;52.35;100135.06;15638256;28;20076;-57
2022/02/14 23:31:05;;;;;;;1999.90;999.90;;;;;;;10.66;51.52;100141.44;15625062;28;20045;-59
2022/02/14 23:38:38;;;;;;;1999.90;999.90;;;;;;;10.64;51.94;100150.19;15620658;28;20045;-59
2022/02/14 23:46:21;;;;;;;1999.90;999.90;;;;;;;10.68;52.22;100150.28;15626544;28;20080;-58
2022/02/14 23:53:53;;;;;;;1999.90;999.90;;;;;;;10.64;52.14;100146.56;15587845;28;20119;-60
